sensor_id;sensor_type;location;lat;lon;timestamp;P1;durP1;ratioP1;P2;durP2;ratioP2
85871;SDS011;76390;44.082;3.046;2024-03-02T00:00:00;17.25;;;6.82;;
85871;SDS011;76390;44.082;3.046;2024-03-02T00:02:34;12.50;;;6.32;;
85871;SDS011;76390;44.082;3.046;2024-03-02T00:05:10;9.23;;;5.03;;
85871;SDS011;76390;44.082;3.046;2024-03-02T00:07:36;9.38;;;4.65;;
85871;SDS011;76390;44.082;3.046;2024-03-02T00:10:04;7.93;;;4.22;;
85871;SDS011;76390;44.082;3.046;2024-03-02T00:12:34;9.90;;;5.35;;
85871;SDS011;76390;44.082;3.046;2024-03-02T00:14:59;13.23;;;5.55;;
85871;SDS011;76390;44.082;3.046;2024-03-02T00:17:27;13.68;;;5.75;;
85871;SDS011;76390;44.082;3.046;2024-03-02T00:19:54;12.48;;;6.07;;
85871;SDS011;76390;44.082;3.046;2024-03-02T00:22:20;15.55;;;7.28;;
85871;SDS011;76390;44.082;3.046;2024-03-02T00:24:45;14.60;;;7.53;;
85871;SDS011;76390;44.082;3.046;2024-03-02T00:27:12;18.77;;;8.55;;
85871;SDS011;76390;44.082;3.046;2024-03-02T00:29:38;21.48;;;8.25;;
85871;SDS011;76390;44.082;3.046;2024-03-02T00:32:08;15.15;;;6.78;;
85871;SDS011;76390;44.082;3.046;2024-03-02T00:34:38;13.20;;;5.93;;
85871;SDS011;76390;44.082;3.046;2024-03-02T00:37:03;15.98;;;6.75;;
85871;SDS011;76390;44.082;3.046;2024-03-02T00:39:29;16.30;;;7.72;;
85871;SDS011;76390;44.082;3.046;2024-03-02T00:41:54;15.13;;;7.18;;
85871;SDS011;76390;44.082;3.046;2024-03-02T00:44:20;18.13;;;7.70;;
85871;SDS011;76390;44.082;3.046;2024-03-02T00:51:49;13.98;;;6.28;;
85871;SDS011;76390;44.082;3.046;2024-03-02T00:54:19;16.65;;;7.63;;
85871;SDS011;76390;44.082;3.046;2024-03-02T00:56:45;13.98;;;6.30;;
85871;SDS011;76390;44.082;3.046;2024-03-02T00:59:12;11.95;;;5.63;;
85871;SDS011;76390;44.082;3.046;2024-03-02T01:01:37;13.70;;;6.30;;
85871;SDS011;76390;44.082;3.046;2024-03-02T01:04:03;14.93;;;5.63;;
85871;SDS011;76390;44.082;3.046;2024-03-02T01:06:29;11.23;;;5.57;;
85871;SDS011;76390;44.082;3.046;2024-03-02T01:08:55;12.45;;;5.57;;
85871;SDS011;76390;44.082;3.046;2024-03-02T01:11:21;12.05;;;5.53;;
85871;SDS011;76390;44.082;3.046;2024-03-02T01:13:49;12.55;;;5.70;;
85871;SDS011;76390;44.082;3.046;2024-03-02T01:16:15;10.60;;;5.07;;
85871;SDS011;76390;44.082;3.046;2024-03-02T01:18:41;11.50;;;5.00;;
85871;SDS011;76390;44.082;3.046;2024-03-02T01:21:07;10.15;;;5.40;;
85871;SDS011;76390;44.082;3.046;2024-03-02T01:23:32;11.07;;;5.30;;
85871;SDS011;76390;44.082;3.046;2024-03-02T01:25:58;9.82;;;4.57;;
85871;SDS011;76390;44.082;3.046;2024-03-02T01:28:23;11.02;;;4.43;;
85871;SDS011;76390;44.082;3.046;2024-03-02T01:30:49;7.38;;;4.32;;
85871;SDS011;76390;44.082;3.046;2024-03-02T01:33:14;9.35;;;5.10;;
85871;SDS011;76390;44.082;3.046;2024-03-02T01:35:41;9.88;;;5.55;;
85871;SDS011;76390;44.082;3.046;2024-03-02T01:38:06;11.60;;;4.93;;
85871;SDS011;76390;44.082;3.046;2024-03-02T01:40:35;10.95;;;4.28;;
85871;SDS011;76390;44.082;3.046;2024-03-02T01:43:00;9.85;;;4.38;;
85871;SDS011;76390;44.082;3.046;2024-03-02T01:45:27;11.65;;;5.10;;
85871;SDS011;76390;44.082;3.046;2024-03-02T01:47:53;11.32;;;4.90;;
85871;SDS011;76390;44.082;3.046;2024-03-02T01:50:25;13.90;;;5.38;;
85871;SDS011;76390;44.082;3.046;2024-03-02T01:52:51;10.98;;;5.03;;
85871;SDS011;76390;44.082;3.046;2024-03-02T01:55:17;14.50;;;5.80;;
85871;SDS011;76390;44.082;3.046;2024-03-02T01:57:42;13.43;;;5.97;;
85871;SDS011;76390;44.082;3.046;2024-03-02T02:00:10;10.60;;;4.63;;
85871;SDS011;76390;44.082;3.046;2024-03-02T02:02:36;10.10;;;3.90;;
85871;SDS011;76390;44.082;3.046;2024-03-02T02:05:01;9.63;;;4.25;;
85871;SDS011;76390;44.082;3.046;2024-03-02T02:07:28;7.60;;;3.88;;
85871;SDS011;76390;44.082;3.046;2024-03-02T02:09:53;9.40;;;3.95;;
85871;SDS011;76390;44.082;3.046;2024-03-02T02:12:19;8.57;;;3.83;;
85871;SDS011;76390;44.082;3.046;2024-03-02T02:14:48;10.65;;;3.92;;
85871;SDS011;76390;44.082;3.046;2024-03-02T02:17:14;7.85;;;4.05;;
85871;SDS011;76390;44.082;3.046;2024-03-02T02:19:42;9.82;;;4.30;;
85871;SDS011;76390;44.082;3.046;2024-03-02T02:22:09;11.68;;;4.45;;
85871;SDS011;76390;44.082;3.046;2024-03-02T02:24:35;8.30;;;4.07;;
85871;SDS011;76390;44.082;3.046;2024-03-02T02:27:00;7.90;;;3.90;;
85871;SDS011;76390;44.082;3.046;2024-03-02T02:29:26;9.40;;;4.15;;
85871;SDS011;76390;44.082;3.046;2024-03-02T02:31:52;9.05;;;4.07;;
85871;SDS011;76390;44.082;3.046;2024-03-02T02:34:17;7.38;;;4.18;;
85871;SDS011;76390;44.082;3.046;2024-03-02T02:36:43;9.52;;;4.60;;
85871;SDS011;76390;44.082;3.046;2024-03-02T02:39:10;10.20;;;5.20;;
85871;SDS011;76390;44.082;3.046;2024-03-02T02:41:38;8.57;;;4.50;;
85871;SDS011;76390;44.082;3.046;2024-03-02T02:44:04;9.23;;;3.85;;
85871;SDS011;76390;44.082;3.046;2024-03-02T02:46:30;8.48;;;4.28;;
85871;SDS011;76390;44.082;3.046;2024-03-02T02:48:55;7.68;;;4.22;;
85871;SDS011;76390;44.082;3.046;2024-03-02T02:51:21;9.15;;;4.30;;
85871;SDS011;76390;44.082;3.046;2024-03-02T02:53:46;10.30;;;5.05;;
85871;SDS011;76390;44.082;3.046;2024-03-02T02:56:12;8.57;;;3.88;;
85871;SDS011;76390;44.082;3.046;2024-03-02T02:58:37;9.07;;;4.40;;
85871;SDS011;76390;44.082;3.046;2024-03-02T03:01:03;7.68;;;3.50;;
85871;SDS011;76390;44.082;3.046;2024-03-02T03:03:29;8.52;;;3.70;;
85871;SDS011;76390;44.082;3.046;2024-03-02T03:05:54;8.85;;;3.75;;
85871;SDS011;76390;44.082;3.046;2024-03-02T03:08:20;9.13;;;3.50;;
85871;SDS011;76390;44.082;3.046;2024-03-02T03:10:45;11.70;;;3.50;;
85871;SDS011;76390;44.082;3.046;2024-03-02T03:13:11;9.88;;;3.60;;
85871;SDS011;76390;44.082;3.046;2024-03-02T03:15:36;7.88;;;3.72;;
85871;SDS011;76390;44.082;3.046;2024-03-02T03:18:03;8.27;;;3.72;;
85871;SDS011;76390;44.082;3.046;2024-03-02T03:20:29;6.95;;;3.47;;
85871;SDS011;76390;44.082;3.046;2024-03-02T03:22:55;12.77;;;4.40;;
85871;SDS011;76390;44.082;3.046;2024-03-02T03:25:22;7.65;;;3.63;;
85871;SDS011;76390;44.082;3.046;2024-03-02T03:27:47;7.60;;;3.70;;
85871;SDS011;76390;44.082;3.046;2024-03-02T03:30:13;7.80;;;3.45;;
85871;SDS011;76390;44.082;3.046;2024-03-02T03:32:38;11.55;;;3.75;;
85871;SDS011;76390;44.082;3.046;2024-03-02T03:35:04;8.32;;;3.42;;
85871;SDS011;76390;44.082;3.046;2024-03-02T03:37:31;8.07;;;3.22;;
85871;SDS011;76390;44.082;3.046;2024-03-02T03:39:59;10.05;;;3.42;;
85871;SDS011;76390;44.082;3.046;2024-03-02T03:42:26;9.88;;;4.15;;
85871;SDS011;76390;44.082;3.046;2024-03-02T03:44:52;9.50;;;4.10;;
85871;SDS011;76390;44.082;3.046;2024-03-02T03:47:17;15.07;;;4.60;;
85871;SDS011;76390;44.082;3.046;2024-03-02T03:49:43;15.73;;;4.63;;
85871;SDS011;76390;44.082;3.046;2024-03-02T03:52:08;10.18;;;3.95;;
85871;SDS011;76390;44.082;3.046;2024-03-02T03:54:34;6.25;;;3.42;;
85871;SDS011;76390;44.082;3.046;2024-03-02T03:56:59;8.32;;;4.25;;
85871;SDS011;76390;44.082;3.046;2024-03-02T03:59:25;9.45;;;3.80;;
85871;SDS011;76390;44.082;3.046;2024-03-02T04:01:50;11.30;;;4.10;;
85871;SDS011;76390;44.082;3.046;2024-03-02T04:04:16;11.98;;;4.05;;
85871;SDS011;76390;44.082;3.046;2024-03-02T04:06:42;11.07;;;3.90;;
85871;SDS011;76390;44.082;3.046;2024-03-02T04:09:07;8.35;;;3.25;;
85871;SDS011;76390;44.082;3.046;2024-03-02T04:11:33;6.65;;;3.15;;
85871;SDS011;76390;44.082;3.046;2024-03-02T04:13:58;7.78;;;3.25;;
85871;SDS011;76390;44.082;3.046;2024-03-02T04:16:24;8.15;;;3.53;;
85871;SDS011;76390;44.082;3.046;2024-03-02T04:18:49;7.55;;;3.22;;
85871;SDS011;76390;44.082;3.046;2024-03-02T04:21:15;8.13;;;3.28;;
85871;SDS011;76390;44.082;3.046;2024-03-02T04:23:40;6.78;;;2.90;;
85871;SDS011;76390;44.082;3.046;2024-03-02T04:26:06;9.38;;;3.50;;
85871;SDS011;76390;44.082;3.046;2024-03-02T04:28:31;6.75;;;2.88;;
85871;SDS011;76390;44.082;3.046;2024-03-02T04:30:58;6.80;;;2.67;;
85871;SDS011;76390;44.082;3.046;2024-03-02T04:33:23;7.03;;;3.45;;
85871;SDS011;76390;44.082;3.046;2024-03-02T04:35:49;7.88;;;3.20;;
85871;SDS011;76390;44.082;3.046;2024-03-02T04:38:14;8.50;;;3.38;;
85871;SDS011;76390;44.082;3.046;2024-03-02T04:40:39;9.75;;;3.20;;
85871;SDS011;76390;44.082;3.046;2024-03-02T04:43:05;9.35;;;3.83;;
85871;SDS011;76390;44.082;3.046;2024-03-02T04:45:31;11.93;;;4.20;;
85871;SDS011;76390;44.082;3.046;2024-03-02T04:47:56;9.38;;;4.07;;
85871;SDS011;76390;44.082;3.046;2024-03-02T04:50:22;15.90;;;4.97;;
85871;SDS011;76390;44.082;3.046;2024-03-02T04:52:47;10.95;;;3.92;;
85871;SDS011;76390;44.082;3.046;2024-03-02T04:55:13;6.47;;;2.90;;
85871;SDS011;76390;44.082;3.046;2024-03-02T04:57:42;9.23;;;3.58;;
85871;SDS011;76390;44.082;3.046;2024-03-02T05:00:08;8.88;;;4.40;;
85871;SDS011;76390;44.082;3.046;2024-03-02T05:02:34;8.00;;;3.65;;
85871;SDS011;76390;44.082;3.046;2024-03-02T05:05:00;8.65;;;3.17;;
85871;SDS011;76390;44.082;3.046;2024-03-02T05:07:26;7.70;;;3.40;;
85871;SDS011;76390;44.082;3.046;2024-03-02T05:09:51;7.22;;;3.15;;
85871;SDS011;76390;44.082;3.046;2024-03-02T05:12:17;7.22;;;3.00;;
85871;SDS011;76390;44.082;3.046;2024-03-02T05:15:01;8.18;;;3.50;;
85871;SDS011;76390;44.082;3.046;2024-03-02T05:17:27;7.32;;;3.22;;
85871;SDS011;76390;44.082;3.046;2024-03-02T05:19:52;7.35;;;3.53;;
85871;SDS011;76390;44.082;3.046;2024-03-02T05:22:18;10.70;;;3.13;;
85871;SDS011;76390;44.082;3.046;2024-03-02T05:24:43;6.93;;;3.30;;
85871;SDS011;76390;44.082;3.046;2024-03-02T05:27:09;8.50;;;3.65;;
85871;SDS011;76390;44.082;3.046;2024-03-02T05:29:34;8.00;;;3.22;;
85871;SDS011;76390;44.082;3.046;2024-03-02T05:32:00;8.30;;;3.35;;
85871;SDS011;76390;44.082;3.046;2024-03-02T05:34:25;6.22;;;3.58;;
85871;SDS011;76390;44.082;3.046;2024-03-02T05:36:51;7.18;;;3.35;;
85871;SDS011;76390;44.082;3.046;2024-03-02T05:39:16;7.95;;;2.92;;
85871;SDS011;76390;44.082;3.046;2024-03-02T05:41:42;9.05;;;3.25;;
85871;SDS011;76390;44.082;3.046;2024-03-02T05:44:07;5.85;;;2.78;;
85871;SDS011;76390;44.082;3.046;2024-03-02T05:46:33;6.35;;;3.20;;
85871;SDS011;76390;44.082;3.046;2024-03-02T05:48:59;7.60;;;3.30;;
85871;SDS011;76390;44.082;3.046;2024-03-02T05:51:25;6.88;;;3.20;;
85871;SDS011;76390;44.082;3.046;2024-03-02T05:53:51;7.78;;;3.15;;
85871;SDS011;76390;44.082;3.046;2024-03-02T05:56:16;7.93;;;3.42;;
85871;SDS011;76390;44.082;3.046;2024-03-02T05:58:42;7.47;;;3.70;;
85871;SDS011;76390;44.082;3.046;2024-03-02T06:01:26;7.03;;;3.55;;
85871;SDS011;76390;44.082;3.046;2024-03-02T06:03:54;11.13;;;3.65;;
85871;SDS011;76390;44.082;3.046;2024-03-02T06:06:24;7.53;;;3.75;;
85871;SDS011;76390;44.082;3.046;2024-03-02T06:08:49;7.35;;;3.42;;
85871;SDS011;76390;44.082;3.046;2024-03-02T06:11:15;5.60;;;3.08;;
85871;SDS011;76390;44.082;3.046;2024-03-02T06:13:41;5.20;;;2.95;;
85871;SDS011;76390;44.082;3.046;2024-03-02T06:16:06;6.63;;;2.90;;
85871;SDS011;76390;44.082;3.046;2024-03-02T06:18:33;7.32;;;3.00;;
85871;SDS011;76390;44.082;3.046;2024-03-02T06:20:59;7.25;;;2.85;;
85871;SDS011;76390;44.082;3.046;2024-03-02T06:23:26;6.57;;;2.75;;
85871;SDS011;76390;44.082;3.046;2024-03-02T06:25:52;6.18;;;2.53;;
85871;SDS011;76390;44.082;3.046;2024-03-02T06:28:17;6.60;;;2.85;;
85871;SDS011;76390;44.082;3.046;2024-03-02T06:30:43;4.18;;;2.25;;
85871;SDS011;76390;44.082;3.046;2024-03-02T06:33:09;4.68;;;2.28;;
85871;SDS011;76390;44.082;3.046;2024-03-02T06:35:34;5.20;;;2.47;;
85871;SDS011;76390;44.082;3.046;2024-03-02T06:38:00;4.85;;;2.30;;
85871;SDS011;76390;44.082;3.046;2024-03-02T06:40:26;5.00;;;2.30;;
85871;SDS011;76390;44.082;3.046;2024-03-02T06:42:52;5.97;;;2.55;;
85871;SDS011;76390;44.082;3.046;2024-03-02T06:45:17;7.13;;;3.55;;
85871;SDS011;76390;44.082;3.046;2024-03-02T06:47:43;6.68;;;3.00;;
85871;SDS011;76390;44.082;3.046;2024-03-02T06:50:08;11.57;;;3.95;;
85871;SDS011;76390;44.082;3.046;2024-03-02T06:52:34;8.98;;;4.82;;
85871;SDS011;76390;44.082;3.046;2024-03-02T06:55:00;9.32;;;5.82;;
85871;SDS011;76390;44.082;3.046;2024-03-02T06:57:26;7.80;;;3.33;;
85871;SDS011;76390;44.082;3.046;2024-03-02T06:59:51;7.25;;;3.55;;
85871;SDS011;76390;44.082;3.046;2024-03-02T07:02:20;6.78;;;3.10;;
85871;SDS011;76390;44.082;3.046;2024-03-02T07:04:46;6.47;;;2.85;;
85871;SDS011;76390;44.082;3.046;2024-03-02T07:07:12;6.40;;;3.20;;
85871;SDS011;76390;44.082;3.046;2024-03-02T07:09:37;8.45;;;3.30;;
85871;SDS011;76390;44.082;3.046;2024-03-02T07:12:03;7.03;;;3.60;;
85871;SDS011;76390;44.082;3.046;2024-03-02T07:14:29;7.80;;;4.72;;
85871;SDS011;76390;44.082;3.046;2024-03-02T07:17:13;5.95;;;3.20;;
85871;SDS011;76390;44.082;3.046;2024-03-02T07:19:39;5.25;;;2.63;;
85871;SDS011;76390;44.082;3.046;2024-03-02T07:22:07;7.88;;;3.00;;
85871;SDS011;76390;44.082;3.046;2024-03-02T07:24:39;5.43;;;3.03;;
85871;SDS011;76390;44.082;3.046;2024-03-02T07:27:07;9.02;;;3.65;;
85871;SDS011;76390;44.082;3.046;2024-03-02T07:29:33;10.23;;;3.97;;
85871;SDS011;76390;44.082;3.046;2024-03-02T07:31:58;10.43;;;3.67;;
85871;SDS011;76390;44.082;3.046;2024-03-02T07:34:24;13.38;;;4.03;;
85871;SDS011;76390;44.082;3.046;2024-03-02T07:36:49;15.25;;;5.05;;
85871;SDS011;76390;44.082;3.046;2024-03-02T07:39:15;10.77;;;4.00;;
85871;SDS011;76390;44.082;3.046;2024-03-02T07:41:41;10.18;;;4.22;;
85871;SDS011;76390;44.082;3.046;2024-03-02T07:44:07;13.50;;;4.78;;
85871;SDS011;76390;44.082;3.046;2024-03-02T07:46:32;8.82;;;3.58;;
85871;SDS011;76390;44.082;3.046;2024-03-02T07:48:58;8.75;;;3.15;;
85871;SDS011;76390;44.082;3.046;2024-03-02T07:51:23;9.70;;;4.13;;
85871;SDS011;76390;44.082;3.046;2024-03-02T07:53:49;12.68;;;4.47;;
85871;SDS011;76390;44.082;3.046;2024-03-02T07:56:14;3.90;;;1.60;;
85871;SDS011;76390;44.082;3.046;2024-03-02T07:58:47;9.13;;;3.90;;
85871;SDS011;76390;44.082;3.046;2024-03-02T08:01:14;8.52;;;4.20;;
85871;SDS011;76390;44.082;3.046;2024-03-02T08:03:39;8.23;;;3.88;;
85871;SDS011;76390;44.082;3.046;2024-03-02T08:06:05;6.95;;;2.80;;
85871;SDS011;76390;44.082;3.046;2024-03-02T08:08:31;9.75;;;3.20;;
85871;SDS011;76390;44.082;3.046;2024-03-02T08:10:57;7.40;;;3.55;;
85871;SDS011;76390;44.082;3.046;2024-03-02T08:13:22;12.68;;;3.28;;
85871;SDS011;76390;44.082;3.046;2024-03-02T08:15:48;5.82;;;2.25;;
85871;SDS011;76390;44.082;3.046;2024-03-02T08:18:13;6.78;;;2.28;;
85871;SDS011;76390;44.082;3.046;2024-03-02T08:20:39;7.28;;;3.70;;
85871;SDS011;76390;44.082;3.046;2024-03-02T08:23:05;7.22;;;2.88;;
85871;SDS011;76390;44.082;3.046;2024-03-02T08:25:31;9.02;;;3.30;;
85871;SDS011;76390;44.082;3.046;2024-03-02T08:27:57;8.60;;;2.63;;
85871;SDS011;76390;44.082;3.046;2024-03-02T08:30:23;7.25;;;2.97;;
85871;SDS011;76390;44.082;3.046;2024-03-02T08:32:48;7.03;;;2.40;;
85871;SDS011;76390;44.082;3.046;2024-03-02T08:35:14;6.38;;;2.45;;
85871;SDS011;76390;44.082;3.046;2024-03-02T08:37:39;8.77;;;2.65;;
85871;SDS011;76390;44.082;3.046;2024-03-02T08:40:07;10.18;;;3.53;;
85871;SDS011;76390;44.082;3.046;2024-03-02T08:42:33;4.70;;;2.10;;
85871;SDS011;76390;44.082;3.046;2024-03-02T08:44:58;6.30;;;2.05;;
85871;SDS011;76390;44.082;3.046;2024-03-02T08:47:26;12.60;;;2.58;;
85871;SDS011;76390;44.082;3.046;2024-03-02T08:49:52;8.50;;;2.15;;
85871;SDS011;76390;44.082;3.046;2024-03-02T08:52:18;7.50;;;2.83;;
85871;SDS011;76390;44.082;3.046;2024-03-02T08:54:43;8.35;;;2.55;;
85871;SDS011;76390;44.082;3.046;2024-03-02T08:57:09;5.38;;;2.45;;
85871;SDS011;76390;44.082;3.046;2024-03-02T08:59:35;6.93;;;2.85;;
85871;SDS011;76390;44.082;3.046;2024-03-02T09:02:00;6.50;;;2.35;;
85871;SDS011;76390;44.082;3.046;2024-03-02T09:04:26;5.35;;;2.20;;
85871;SDS011;76390;44.082;3.046;2024-03-02T09:06:52;6.13;;;2.35;;
85871;SDS011;76390;44.082;3.046;2024-03-02T09:09:17;8.00;;;2.30;;
85871;SDS011;76390;44.082;3.046;2024-03-02T09:11:43;5.50;;;2.03;;
85871;SDS011;76390;44.082;3.046;2024-03-02T09:14:08;7.50;;;2.00;;
85871;SDS011;76390;44.082;3.046;2024-03-02T09:16:34;5.65;;;2.17;;
85871;SDS011;76390;44.082;3.046;2024-03-02T09:18:59;3.70;;;1.98;;
85871;SDS011;76390;44.082;3.046;2024-03-02T09:21:25;5.15;;;2.30;;
85871;SDS011;76390;44.082;3.046;2024-03-02T09:23:51;6.43;;;2.30;;
85871;SDS011;76390;44.082;3.046;2024-03-02T09:26:17;8.38;;;1.95;;
85871;SDS011;76390;44.082;3.046;2024-03-02T09:28:43;4.53;;;2.45;;
85871;SDS011;76390;44.082;3.046;2024-03-02T09:31:08;4.07;;;1.90;;
85871;SDS011;76390;44.082;3.046;2024-03-02T09:33:34;8.00;;;2.42;;
85871;SDS011;76390;44.082;3.046;2024-03-02T09:35:59;8.57;;;2.38;;
85871;SDS011;76390;44.082;3.046;2024-03-02T09:38:25;7.65;;;1.85;;
85871;SDS011;76390;44.082;3.046;2024-03-02T09:40:51;5.75;;;2.10;;
85871;SDS011;76390;44.082;3.046;2024-03-02T09:43:16;6.68;;;2.33;;
85871;SDS011;76390;44.082;3.046;2024-03-02T09:45:42;5.10;;;2.25;;
85871;SDS011;76390;44.082;3.046;2024-03-02T09:48:08;6.25;;;2.03;;
85871;SDS011;76390;44.082;3.046;2024-03-02T09:50:33;5.47;;;2.00;;
85871;SDS011;76390;44.082;3.046;2024-03-02T09:52:59;5.88;;;2.10;;
85871;SDS011;76390;44.082;3.046;2024-03-02T09:55:24;6.32;;;1.95;;
85871;SDS011;76390;44.082;3.046;2024-03-02T09:57:50;5.97;;;1.83;;
85871;SDS011;76390;44.082;3.046;2024-03-02T10:00:16;6.03;;;2.22;;
85871;SDS011;76390;44.082;3.046;2024-03-02T10:02:42;8.75;;;2.15;;
85871;SDS011;76390;44.082;3.046;2024-03-02T10:05:08;4.78;;;2.10;;
85871;SDS011;76390;44.082;3.046;2024-03-02T10:07:34;6.43;;;2.00;;
85871;SDS011;76390;44.082;3.046;2024-03-02T10:10:00;4.68;;;1.95;;
85871;SDS011;76390;44.082;3.046;2024-03-02T10:12:37;7.25;;;2.10;;
85871;SDS011;76390;44.082;3.046;2024-03-02T10:15:03;7.70;;;2.22;;
85871;SDS011;76390;44.082;3.046;2024-03-02T10:17:30;8.25;;;2.50;;
85871;SDS011;76390;44.082;3.046;2024-03-02T10:19:56;6.45;;;2.00;;
85871;SDS011;76390;44.082;3.046;2024-03-02T10:22:22;4.55;;;1.98;;
85871;SDS011;76390;44.082;3.046;2024-03-02T10:24:48;10.65;;;1.83;;
85871;SDS011;76390;44.082;3.046;2024-03-02T10:29:46;6.45;;;1.70;;
85871;SDS011;76390;44.082;3.046;2024-03-02T10:32:12;8.57;;;2.00;;
85871;SDS011;76390;44.082;3.046;2024-03-02T10:34:42;8.82;;;2.20;;
85871;SDS011;76390;44.082;3.046;2024-03-02T10:37:08;9.77;;;2.30;;
85871;SDS011;76390;44.082;3.046;2024-03-02T10:39:34;6.30;;;2.08;;
85871;SDS011;76390;44.082;3.046;2024-03-02T10:42:05;7.20;;;2.10;;
85871;SDS011;76390;44.082;3.046;2024-03-02T10:44:31;11.80;;;2.20;;
85871;SDS011;76390;44.082;3.046;2024-03-02T10:47:01;5.45;;;1.67;;
85871;SDS011;76390;44.082;3.046;2024-03-02T10:49:30;7.10;;;1.67;;
85871;SDS011;76390;44.082;3.046;2024-03-02T10:51:59;5.55;;;2.15;;
85871;SDS011;76390;44.082;3.046;2024-03-02T10:54:25;10.18;;;2.22;;
85871;SDS011;76390;44.082;3.046;2024-03-02T10:56:52;4.53;;;2.03;;
85871;SDS011;76390;44.082;3.046;2024-03-02T10:59:24;5.47;;;1.88;;
85871;SDS011;76390;44.082;3.046;2024-03-02T11:01:53;8.05;;;2.10;;
85871;SDS011;76390;44.082;3.046;2024-03-02T11:04:21;5.15;;;2.13;;
85871;SDS011;76390;44.082;3.046;2024-03-02T11:06:49;7.35;;;2.58;;
85871;SDS011;76390;44.082;3.046;2024-03-02T11:09:16;7.88;;;1.90;;
85871;SDS011;76390;44.082;3.046;2024-03-02T11:12:34;5.82;;;1.92;;
85871;SDS011;76390;44.082;3.046;2024-03-02T11:14:51;6.50;;;2.17;;
85871;SDS011;76390;44.082;3.046;2024-03-02T11:17:17;7.75;;;1.70;;
85871;SDS011;76390;44.082;3.046;2024-03-02T11:19:43;6.00;;;1.90;;
85871;SDS011;76390;44.082;3.046;2024-03-02T11:22:09;5.78;;;1.60;;
85871;SDS011;76390;44.082;3.046;2024-03-02T11:24:35;5.40;;;1.45;;
85871;SDS011;76390;44.082;3.046;2024-03-02T11:27:02;8.77;;;1.80;;
85871;SDS011;76390;44.082;3.046;2024-03-02T11:29:46;4.95;;;1.95;;
85871;SDS011;76390;44.082;3.046;2024-03-02T11:32:16;9.73;;;1.92;;
85871;SDS011;76390;44.082;3.046;2024-03-02T11:37:10;6.32;;;2.20;;
85871;SDS011;76390;44.082;3.046;2024-03-02T11:39:37;9.38;;;2.38;;
85871;SDS011;76390;44.082;3.046;2024-03-02T11:42:05;4.32;;;1.50;;
85871;SDS011;76390;44.082;3.046;2024-03-02T11:44:32;9.63;;;2.05;;
85871;SDS011;76390;44.082;3.046;2024-03-02T11:46:58;8.10;;;2.28;;
85871;SDS011;76390;44.082;3.046;2024-03-02T11:49:40;7.32;;;2.25;;
85871;SDS011;76390;44.082;3.046;2024-03-02T11:52:08;6.60;;;1.73;;
85871;SDS011;76390;44.082;3.046;2024-03-02T11:54:39;8.57;;;1.85;;
85871;SDS011;76390;44.082;3.046;2024-03-02T11:57:15;7.63;;;2.30;;
85871;SDS011;76390;44.082;3.046;2024-03-02T11:59:42;7.00;;;1.98;;
85871;SDS011;76390;44.082;3.046;2024-03-02T12:02:12;6.60;;;2.00;;
85871;SDS011;76390;44.082;3.046;2024-03-02T12:04:40;5.85;;;2.03;;
85871;SDS011;76390;44.082;3.046;2024-03-02T12:07:06;8.20;;;2.20;;
85871;SDS011;76390;44.082;3.046;2024-03-02T12:09:31;7.05;;;1.80;;
85871;SDS011;76390;44.082;3.046;2024-03-02T12:12:03;7.53;;;2.03;;
85871;SDS011;76390;44.082;3.046;2024-03-02T12:14:31;5.75;;;2.38;;
85871;SDS011;76390;44.082;3.046;2024-03-02T12:16:57;6.05;;;2.20;;
85871;SDS011;76390;44.082;3.046;2024-03-02T12:19:24;5.60;;;1.77;;
85871;SDS011;76390;44.082;3.046;2024-03-02T12:21:50;8.73;;;2.10;;
85871;SDS011;76390;44.082;3.046;2024-03-02T12:24:16;5.50;;;2.03;;
85871;SDS011;76390;44.082;3.046;2024-03-02T12:26:41;8.18;;;2.15;;
85871;SDS011;76390;44.082;3.046;2024-03-02T12:29:07;9.38;;;2.50;;
85871;SDS011;76390;44.082;3.046;2024-03-02T12:31:33;5.18;;;1.77;;
85871;SDS011;76390;44.082;3.046;2024-03-02T12:33:59;7.22;;;1.90;;
85871;SDS011;76390;44.082;3.046;2024-03-02T12:36:25;7.10;;;2.13;;
85871;SDS011;76390;44.082;3.046;2024-03-02T12:38:52;6.03;;;2.05;;
85871;SDS011;76390;44.082;3.046;2024-03-02T12:41:18;4.85;;;2.05;;
85871;SDS011;76390;44.082;3.046;2024-03-02T12:43:43;5.32;;;2.20;;
85871;SDS011;76390;44.082;3.046;2024-03-02T12:46:09;5.05;;;2.08;;
85871;SDS011;76390;44.082;3.046;2024-03-02T12:48:35;7.82;;;2.03;;
85871;SDS011;76390;44.082;3.046;2024-03-02T12:51:01;6.18;;;2.30;;
85871;SDS011;76390;44.082;3.046;2024-03-02T12:53:27;9.40;;;2.70;;
85871;SDS011;76390;44.082;3.046;2024-03-02T12:55:52;6.15;;;2.30;;
85871;SDS011;76390;44.082;3.046;2024-03-02T12:58:19;8.63;;;2.50;;
85871;SDS011;76390;44.082;3.046;2024-03-02T13:00:48;5.97;;;1.90;;
85871;SDS011;76390;44.082;3.046;2024-03-02T13:03:14;7.10;;;2.58;;
85871;SDS011;76390;44.082;3.046;2024-03-02T13:05:40;5.57;;;2.00;;
85871;SDS011;76390;44.082;3.046;2024-03-02T13:08:06;7.10;;;2.00;;
85871;SDS011;76390;44.082;3.046;2024-03-02T13:10:32;5.18;;;2.00;;
85871;SDS011;76390;44.082;3.046;2024-03-02T13:12:58;4.28;;;1.85;;
85871;SDS011;76390;44.082;3.046;2024-03-02T13:15:25;6.95;;;2.28;;
85871;SDS011;76390;44.082;3.046;2024-03-02T13:17:51;4.97;;;1.80;;
85871;SDS011;76390;44.082;3.046;2024-03-02T13:20:17;6.85;;;1.60;;
85871;SDS011;76390;44.082;3.046;2024-03-02T13:22:44;9.50;;;2.47;;
85871;SDS011;76390;44.082;3.046;2024-03-02T13:25:09;6.15;;;1.63;;
85871;SDS011;76390;44.082;3.046;2024-03-02T13:27:36;7.25;;;1.70;;
85871;SDS011;76390;44.082;3.046;2024-03-02T13:30:02;4.93;;;1.88;;
85871;SDS011;76390;44.082;3.046;2024-03-02T13:32:28;5.97;;;1.88;;
85871;SDS011;76390;44.082;3.046;2024-03-02T13:34:54;5.95;;;1.50;;
85871;SDS011;76390;44.082;3.046;2024-03-02T13:37:22;4.00;;;1.30;;
85871;SDS011;76390;44.082;3.046;2024-03-02T13:39:48;6.03;;;1.70;;
85871;SDS011;76390;44.082;3.046;2024-03-02T13:42:14;4.35;;;1.65;;
85871;SDS011;76390;44.082;3.046;2024-03-02T13:44:40;4.82;;;1.70;;
85871;SDS011;76390;44.082;3.046;2024-03-02T13:47:06;4.82;;;1.92;;
85871;SDS011;76390;44.082;3.046;2024-03-02T13:49:32;5.85;;;1.63;;
85871;SDS011;76390;44.082;3.046;2024-03-02T13:52:05;6.57;;;1.50;;
85871;SDS011;76390;44.082;3.046;2024-03-02T13:54:43;3.80;;;1.52;;
85871;SDS011;76390;44.082;3.046;2024-03-02T13:57:10;2.95;;;1.40;;
85871;SDS011;76390;44.082;3.046;2024-03-02T13:59:36;6.05;;;1.48;;
85871;SDS011;76390;44.082;3.046;2024-03-02T14:02:02;4.70;;;1.38;;
85871;SDS011;76390;44.082;3.046;2024-03-02T14:04:34;5.63;;;1.60;;
85871;SDS011;76390;44.082;3.046;2024-03-02T14:07:00;8.88;;;1.80;;
85871;SDS011;76390;44.082;3.046;2024-03-02T14:09:26;4.07;;;1.42;;
85871;SDS011;76390;44.082;3.046;2024-03-02T14:11:53;4.35;;;1.23;;
85871;SDS011;76390;44.082;3.046;2024-03-02T14:14:19;2.70;;;1.27;;
85871;SDS011;76390;44.082;3.046;2024-03-02T14:16:44;3.33;;;1.30;;
85871;SDS011;76390;44.082;3.046;2024-03-02T14:19:10;8.70;;;2.25;;
85871;SDS011;76390;44.082;3.046;2024-03-02T14:21:37;5.38;;;1.70;;
85871;SDS011;76390;44.082;3.046;2024-03-02T14:24:03;5.22;;;1.67;;
85871;SDS011;76390;44.082;3.046;2024-03-02T14:26:29;3.50;;;1.40;;
85871;SDS011;76390;44.082;3.046;2024-03-02T14:28:54;5.82;;;1.20;;
85871;SDS011;76390;44.082;3.046;2024-03-02T14:31:20;4.60;;;1.48;;
85871;SDS011;76390;44.082;3.046;2024-03-02T14:33:46;7.80;;;1.63;;
85871;SDS011;76390;44.082;3.046;2024-03-02T14:36:12;3.72;;;1.10;;
85871;SDS011;76390;44.082;3.046;2024-03-02T14:38:38;5.13;;;1.50;;
85871;SDS011;76390;44.082;3.046;2024-03-02T14:41:04;6.05;;;1.70;;
85871;SDS011;76390;44.082;3.046;2024-03-02T14:43:29;3.70;;;1.40;;
85871;SDS011;76390;44.082;3.046;2024-03-02T14:45:55;4.93;;;1.50;;
85871;SDS011;76390;44.082;3.046;2024-03-02T14:48:21;4.72;;;1.83;;
85871;SDS011;76390;44.082;3.046;2024-03-02T14:50:47;4.05;;;1.50;;